Tiempo atmosférico en la estación meteorológica de Bello, Teruel (1006 m.)



Fecha
DESCASC
Temp. máxima en grados centígrados (hora)
DESCASC
Temp. mínima en grados centígrados (hora)
DESCASC
Temp. media en grados centígrados
DESCASC
Racha de viento máxima en m/sg (hora)
DESCASC
Velocidad máxima media en intervalos de 10 minutos(hora)
DESCASC
Precipitaciones diarias en mm
DESCASC
Precipitaciones de 00:00 a 06:00 en mm
DESCASC
Precipitaciones de 06:00 a 12:00 en mm
DESCASC
Precipitaciones de 12:00 a 18:00 en mm
DESCASC
Precipitaciones de 18:00 a 24:00 en mm
DESCASC
16-06-2019 28.2 (18:00) 4.9 (06:50) 16.6 9.72 (18:00) 6.39 (18:40) 0 0 0 0 0
15-06-2019 22.9 (19:30) 4.9 (06:40) 13.9 8.89 (16:00) 5.28 (22:10) 0 0 0 0 0
14-06-2019 25.2 (17:10) 8.9 (07:20) 17.1 13.61 (13:40) 7.5 (18:50) 0.8 0 0.8 0 0
13-06-2019 24.6 (17:40) 9.6 (00:00) 17.1 16.67 (09:30) 10.83 (12:50) 0 0 0 0 0
12-06-2019 21.5 (17:30) -0.8 (-00:0) 10.3 12.22 (23:30) 8.61 (23:20) 0 0 0 0 0
11-06-2019 12.5 (19:10) 3.9 (00:00) 8.2 15 (16:10) 7.78 (16:10) 1.2 0 0 1.2 0
10-06-2019 22.1 (16:20) 8.5 (00:00) 15.3 12.5 (16:30) 6.94 (18:20) 0 0 0 0 0
09-06-2019 25.8 (16:10) 12.6 (00:00) 19.2 13.89 (00:30) 9.17 (00:10) 0 0 0 0 0
08-06-2019 25.2 (16:30) 2.8 (00:00) 14 16.67 (15:30) 10.28 (21:30) 0 0 0 0 0
07-06-2019 18.4 (17:50) 6.4 (00:00) 12.4 14.44 (01:00) 10 (00:10) 1.4 0 1.4 0 0
06-06-2019 24 (17:10) 2 (00:00) 13 15.56 (23:59) 10.83 (23:59) 0 0 0 0 0
05-06-2019 16.8 (00:00) 7.7 (00:00) 12.2 15.83 (12:00) 9.44 (12:00) 0.8 0 0.6 0.2 0
04-06-2019 29.1 (15:30) 9.1 (00:00) 19.1 13.89 (15:40) 8.33 (14:40) 0 0 0 0 0
03-06-2019 29.7 (15:30) 13.4 (00:00) 21.6 12.78 (15:00) 7.5 (00:50) 0 0 0 0 0
02-06-2019 31.3 (16:50) 9 (00:00) 20.1 11.11 (21:30) 7.22 (23:20) 0 0 0 0 0
01-06-2019 28.7 (17:30) 7.1 (00:00) 17.9 9.72 (23:20) 6.94 (23:20) 0 0 0 0 0
31-05-2019 27.3 (17:50) 3.4 (00:00) 15.3 7.78 (19:10) 5 (19:00) 0 0 0 0 0
30-05-2019 24.2 (17:30) 2.9 (00:00) 13.6 8.33 (18:30) 5.28 (18:30) 0 0 0 0 0
29-05-2019 18.6 (17:40) 3.6 (00:00) 11.1 12.22 (11:30) 7.5 (11:30) 0 0 0 0 0
28-05-2019 17.8 (16:20) 4.7 (00:00) 11.2 10.28 (18:50) 6.39 (17:20) 0 0 0 0 0
27-05-2019 21.6 (16:50) 4.6 (00:00) 13.1 10.83 (18:40) 7.5 (18:50) 0 0 0 0 0
26-05-2019 18.5 (17:50) 5.8 (00:00) 12.2 9.44 (15:30) 5.83 (19:00) 0 0 0 0 0
25-05-2019 17.1 (17:50) 8.4 (00:00) 12.8 11.39 (03:10) 7.22 (09:40) 0 0 0 0 0
24-05-2019 -- (--) -- (--) -- -- (--) -- (--) -- -- -- 0 0
23-05-2019 -- (--) -- (--) -- -- (--) -- (--) -- 0 0 0 --
22-05-2019 22.8 (19:20) 2.9 (00:00) 12.8 6.94 (14:30) 3.89 (14:30) 0 0 0 0 0
21-05-2019 19.4 (17:30) 1.8 (06:50) 10.6 7.22 (16:40) 4.72 (18:50) 0 0 0 0 0

Gráficas

Temp. máximas Temp. mínimas Temp. medias Precipitaciones Rachas de viento máximas Velocidades máximas media en intervalos de 10 minutos

Datos horarios

Fecha y hora oficial Temperatura (ºC) Velocidad del viento (km/h) Dirección del viento Racha (km/h) Dirección de racha Precipitación (mm) Presión (hPa) Tendencia (hPa) Humedad (%)
2019-06-19 23:00:00 21.2 7 Oeste 19 Oeste 0 -- -- 42
2019-06-19 22:00:00 21.7 11 Oeste 25 Oeste 0 -- -- 42
2019-06-19 21:00:00 24.3 15 Oeste 30 Noroeste 0 -- -- 35
2019-06-19 20:00:00 26 21 Oeste 34 Oeste 0 -- -- 32
2019-06-19 19:00:00 26.9 20 Oeste 39 Oeste 0 -- -- 30
2019-06-19 18:00:00 27.3 18 Oeste 36 Oeste 0 -- -- 31
2019-06-19 17:00:00 27.4 13 Noroeste 37 Noroeste 0 -- -- 32
2019-06-19 16:00:00 27 16 Oeste 35 Oeste 0 -- -- 32
2019-06-19 15:00:00 26 19 Oeste -- -- -- -- -- 36
2019-06-19 14:00:00 25.2 17 Oeste 37 Oeste 0 -- -- 38
2019-06-19 13:00:00 23.6 18 Oeste 38 Oeste 0 -- -- 40
2019-06-19 12:00:00 22.8 21 Oeste 35 Oeste 0 -- -- 43
2019-06-19 11:00:00 21.4 13 Oeste 30 Oeste 0 -- -- 50
2019-06-19 10:00:00 20 20 Oeste 32 Oeste 0 -- -- 54
2019-06-19 09:00:00 18.9 14 Oeste 22 Oeste 0 -- -- 55
2019-06-19 08:00:00 13.5 2 Oeste 10 Oeste 0 -- -- 62
2019-06-19 07:00:00 9.4 3 Sur -- -- -- -- -- 70
2019-06-19 06:00:00 -- -- -- -- -- -- -- -- --
2019-06-19 05:00:00 -- -- -- -- -- -- -- -- --
2019-06-19 04:00:00 -- -- -- -- -- -- -- -- --
2019-06-19 03:00:00 -- -- -- -- -- -- -- -- --
2019-06-19 02:00:00 -- -- -- -- -- -- -- -- --
2019-06-19 01:00:00 -- -- -- -- -- -- -- -- --
2019-06-19 00:00:00 -- -- -- -- -- -- -- -- --
2019-06-18 23:00:00 -- -- -- -- -- -- -- -- --
2019-06-18 22:00:00 -- -- -- -- -- -- -- -- --
2019-06-18 21:00:00 -- -- -- -- -- -- -- -- --
2019-06-18 20:00:00 -- -- -- -- -- -- -- -- --
2019-06-18 19:00:00 29.1 27 Oeste 41 Oeste 0 -- -- 21
2019-06-18 18:00:00 29.6 23 Oeste 43 Sudoeste 0 -- -- 21
2019-06-18 17:00:00 29.8 25 Sudoeste 45 Sudoeste 0 -- -- 20
2019-06-18 16:00:00 30 23 Oeste 66 Sudoeste 0 -- -- 22
2019-06-18 15:00:00 29.8 17 Sudoeste 43 Oeste 0 -- -- 23
2019-06-18 14:00:00 29.6 21 Oeste 36 Sudoeste 0 -- -- 24
2019-06-18 13:00:00 28.2 18 Oeste 36 Oeste 0 -- -- 24
2019-06-18 12:00:00 27.3 17 Oeste 30 Oeste 0 -- -- 24
2019-06-18 11:00:00 25.8 12 Sudoeste 26 Oeste 0 -- -- 25
2019-06-18 10:00:00 23.4 13 Sudoeste 25 Sur 0 -- -- 34
2019-06-18 09:00:00 19.3 13 Sur 31 Sur 0 -- -- 44
2019-06-18 08:00:00 17.7 17 Sur 26 Sur 0 -- -- 48
2019-06-18 07:00:00 17.2 17 Sur 24 Sur 0 -- -- 49
2019-06-18 06:00:00 16.8 3 Sudeste 19 Sur 0 -- -- 53
2019-06-18 05:00:00 17.5 7 Sur 15 Sudeste 0 -- -- 50
2019-06-18 04:00:00 17.2 5 Noroeste 12 Nordeste 0 -- -- 54
2019-06-18 03:00:00 18.6 8 Sur 39 Sur 0 -- -- 50
2019-06-18 02:00:00 18.2 23 Sur 33 Sur 0 -- -- 53
2019-06-18 01:00:00 18.5 23 Sur 32 Sur 0 -- -- 53
2019-06-18 00:00:00 17.4 6 Sur 21 Sur 0 -- -- 57
2019-06-17 23:00:00 16.9 5 Este 17 Oeste 0 -- -- 41
2019-06-17 22:00:00 21.8 13 Oeste 19 Oeste 0 -- -- 30
2019-06-17 21:00:00 26.5 12 Oeste 27 Oeste 0 -- -- 22
2019-06-17 20:00:00 28.7 17 Oeste 27 Oeste 0 -- -- 21
2019-06-17 19:00:00 30.1 6 Noroeste 20 Sudoeste 0 -- -- 21
2019-06-17 18:00:00 29.5 8 Sudoeste 18 Oeste 0 -- -- 21
2019-06-17 17:00:00 29.1 6 Sudeste 22 Sudeste 0 -- -- 22
2019-06-17 16:00:00 29.3 11 Este 35 Este 0 -- -- 24
2019-06-17 15:00:00 28.7 10 Sudoeste 33 Sur 0 -- -- 24
2019-06-17 14:00:00 27.2 9 Oeste 24 Sur 0 -- -- 26
2019-06-17 13:00:00 26.5 8 Sudeste 25 Sur 0 -- -- 27
2019-06-17 12:00:00 25.2 6 Sudeste 19 Este 0 -- -- 30
2019-06-17 11:00:00 23.7 4 Este 11 Sudeste 0 -- -- 36
2019-06-17 10:00:00 20.5 4 Este 9 Este 0 -- -- 53
2019-06-17 09:00:00 16 2 Nordeste 5 Este 0 -- -- 67
2019-06-17 08:00:00 11.8 3 Nordeste 11 Sudoeste 0 -- -- 79
2019-06-17 07:00:00 8.3 8 Sudoeste 13 Sudoeste 0 -- -- 87
2019-06-17 06:00:00 11.3 5 Norte 8 Norte 0 -- -- 82
2019-06-17 05:00:00 9.4 3 Noroeste 8 Nordeste 0 -- -- 81
2019-06-17 04:00:00 11.4 2 Nordeste 10 Nordeste 0 -- -- 76
2019-06-17 03:00:00 12.4 2 Sur 10 Nordeste 0 -- -- 73
2019-06-17 02:00:00 13.4 7 Sudoeste 13 Sur 0 -- -- 72
2019-06-17 01:00:00 14.6 11 Sur 17 Sur 0 -- -- 67
2019-06-17 00:00:00 16.3 13 Sudeste 20 Sudeste 0 -- -- 59
2019-06-16 23:00:00 20 6 Oeste 21 Noroeste 0 -- -- 41
2019-06-16 22:00:00 21.7 10 Oeste 24 Noroeste 0 -- -- 39
2019-06-16 21:00:00 22.5 13 Este 24 Sudeste 0 -- -- 39
2019-06-16 20:00:00 24.3 10 Sur 29 Sudeste 0 -- -- 36
2019-06-16 19:00:00 25.5 14 Nordeste 33 Nordeste 0 -- -- 30
2019-06-16 18:00:00 28.2 10 Noroeste 35 Oeste 0 -- -- 24
2019-06-16 17:00:00 27.5 7 Sur 19 Este 0 -- -- 26
2019-06-16 16:00:00 27.2 8 Sur 24 Sudoeste 0 -- -- 27
2019-06-16 15:00:00 26 13 Nordeste 26 Nordeste 0 -- -- 29
2019-06-16 14:00:00 25.2 5 Sudoeste 20 Sudeste 0 -- -- 30
2019-06-16 13:00:00 24.3 5 Sur 22 Oeste 0 -- -- 31
2019-06-16 12:00:00 22.8 9 Nordeste 22 Este 0 -- -- 33
2019-06-16 11:00:00 20.7 11 Sur 19 Sudeste 0 -- -- 38
2019-06-16 10:00:00 17.8 9 Sudeste 17 Sudeste 0 -- -- 47
2019-06-16 09:00:00 14.5 9 Sudeste 13 Sudeste 0 -- -- 57
2019-06-16 08:00:00 8.8 0 Calma 8 Sudoeste 0 -- -- 82
2019-06-16 07:00:00 4.9 4 Sudoeste 13 Sudoeste 0 -- -- 85
2019-06-16 06:00:00 5.4 9 Oeste 12 Sudoeste 0 -- -- 85
2019-06-16 05:00:00 6.1 5 Sudoeste 6 Sudoeste 0 -- -- 81
2019-06-16 04:00:00 7.4 4 Sudeste 8 Sur 0 -- -- 77
2019-06-16 03:00:00 8.3 4 Sudeste 10 Sudeste 0 -- -- 74
2019-06-16 02:00:00 10.9 4 Sur 13 Este 0 -- -- 67
2019-06-16 01:00:00 11.8 3 Sudeste 9 Este 0 -- -- 64
2019-06-16 00:00:00 12.8 3 Sudoeste 22 Este 0 -- -- 60
2019-06-15 23:00:00 14.4 14 Este 28 Este 0 -- -- 54
2019-06-15 22:00:00 16 14 Nordeste 24 Nordeste 0 -- -- 50
2019-06-15 21:00:00 19.5 15 Nordeste 24 Nordeste 0 -- -- 41
2019-06-15 20:00:00 22.8 6 Nordeste 16 Norte 0 -- -- 30
2019-06-15 19:00:00 22.5 9 Nordeste 21 Nordeste 0 -- -- 31
2019-06-15 18:00:00 22.5 14 Nordeste 24 Nordeste 0 -- -- 31
2019-06-15 17:00:00 22.2 15 Nordeste 30 Nordeste 0 -- -- 32
2019-06-15 16:00:00 21.5 14 Nordeste 32 Nordeste 0 -- -- 33
2019-06-15 15:00:00 20.7 10 Norte 26 Norte 0 -- -- 33
2019-06-15 14:00:00 19.5 8 Nordeste 24 Norte 0 -- -- 37
2019-06-15 13:00:00 18.2 10 Norte 26 Noroeste 0 -- -- 41
2019-06-15 12:00:00 17.5 7 Norte 18 Noroeste 0 -- -- 43
2019-06-15 11:00:00 15.7 10 Norte 21 Noroeste 0 -- -- 49
2019-06-15 10:00:00 13.7 12 Norte 24 Norte 0 -- -- 56
2019-06-15 09:00:00 12.1 13 Noroeste 21 Norte 0 -- -- 58
2019-06-15 08:00:00 8.8 4 Norte 10 Oeste 0 -- -- 69
2019-06-15 07:00:00 5.1 5 Sudoeste 9 Sudoeste 0 -- -- 78
2019-06-15 06:00:00 6.9 5 Oeste 14 Oeste 0 -- -- 70
2019-06-15 05:00:00 6 10 Oeste 16 Sudoeste 0 -- -- 74
2019-06-15 04:00:00 7.1 3 Sudoeste 14 Oeste 0 -- -- 66
2019-06-15 03:00:00 8.5 3 Noroeste 15 Sudoeste 0 -- -- 60
2019-06-15 02:00:00 9.5 10 Sudoeste 13 Sudoeste 0 -- -- 56
2019-06-15 01:00:00 11.7 4 Sudoeste 12 Oeste 0 -- -- 48
2019-06-15 00:00:00 11.6 10 Oeste 19 Oeste 0 -- -- 49
2019-06-14 23:00:00 14.8 15 Oeste 23 Oeste 0 -- -- 42
2019-06-14 22:00:00 16.9 12 Oeste 29 Oeste 0 -- -- 38
2019-06-14 21:00:00 21.3 18 Oeste 37 Oeste 0 -- -- 28
2019-06-14 20:00:00 23.4 18 Oeste 44 Oeste 0 -- -- 23
2019-06-14 19:00:00 24.2 23 Oeste 45 Oeste 0 -- -- 24
2019-06-14 18:00:00 24.7 25 Oeste 42 Sudoeste 0 -- -- 27
2019-06-14 17:00:00 24.9 25 Oeste 46 Oeste 0 -- -- 26
2019-06-14 16:00:00 24.8 24 Sudoeste 42 Oeste 0 -- -- 28
2019-06-14 15:00:00 24.3 19 Sudoeste 40 Oeste 0 -- -- 32
2019-06-14 14:00:00 22.9 15 Oeste 49 Sudoeste 0 -- -- 40
2019-06-14 13:00:00 20.4 17 Oeste 33 Oeste 0 -- -- 53
2019-06-14 12:00:00 16.8 9 Oeste 17 Oeste 0 -- -- 80
2019-06-14 11:00:00 14.5 8 Noroeste 21 Oeste 0.6 -- -- 90
2019-06-14 10:00:00 14 17 Oeste 28 Oeste 0.2 -- -- 88
2019-06-14 09:00:00 13.2 2 Noroeste 5 Este 0 -- -- 87
2019-06-14 08:00:00 10.3 2 Sudoeste 8 Sur 0 -- -- 93
2019-06-14 07:00:00 9 0 Calma 9 Nordeste 0 -- -- 91
2019-06-14 06:00:00 9.7 2 Norte 4 Noroeste 0 -- -- 90
2019-06-14 05:00:00 10.1 4 Sudeste 8 Noroeste 0 -- -- 87
2019-06-14 04:00:00 12.1 3 Nordeste 15 Sudeste 0 -- -- 86
2019-06-14 03:00:00 13.8 8 Oeste 22 Sur 0 -- -- 82
2019-06-14 02:00:00 14.7 3 Sur 23 Sudeste 0 -- -- 78
2019-06-14 01:00:00 15.1 16 Sur 33 Sur 0 -- -- 77
2019-06-14 00:00:00 15.5 20 Sur 36 Sur 0 -- -- 74
2019-06-13 23:00:00 16.6 25 Sur 36 Sur 0 -- -- 69
2019-06-13 22:00:00 18.1 22 Sur 37 Sur 0 -- -- 62
2019-06-13 21:00:00 19.8 21 Sur 37 Sur 0 -- -- 53
2019-06-13 20:00:00 21.6 18 Sur 30 Sur 0 -- -- 45
2019-06-13 19:00:00 22.5 18 Sur 30 Sudeste 0 -- -- 41
2019-06-13 18:00:00 23.2 16 Sur 32 Sudeste 0 -- -- 39
2019-06-13 17:00:00 23.5 9 Sur 33 Sur 0 -- -- 37
2019-06-13 16:00:00 23.5 17 Sur 40 Sur 0 -- -- 38
2019-06-13 15:00:00 21.6 26 Sudeste 48 Sur 0 -- -- 44
2019-06-13 14:00:00 22.1 32 Sur 57 Sur 0 -- -- 45
2019-06-13 13:00:00 19.9 36 Sudeste 52 Sudeste 0 -- -- 52
2019-06-13 12:00:00 19.1 28 Sur 53 Sur 0 -- -- 54
2019-06-13 11:00:00 18.2 32 Sur 49 Sur 0 -- -- 62
2019-06-13 10:00:00 16.4 36 Sur 60 Sur 0 -- -- 67
2019-06-13 09:00:00 14.5 34 Sur 49 Sur 0 -- -- 73
2019-06-13 08:00:00 12 25 Sur 41 Sur 0 -- -- 82
2019-06-13 07:00:00 10.3 19 Sur 32 Sur 0 -- -- 84
2019-06-13 06:00:00 10.1 7 Este 37 Sur 0 -- -- 81
2019-06-13 05:00:00 10.3 28 Sur 50 Sur 0 -- -- 78
2019-06-13 04:00:00 10.1 37 Sur 49 Sur 0 -- -- 76
2019-06-13 03:00:00 9.6 33 Sur 50 Sur 0 -- -- 72
2019-06-13 02:00:00 10.4 31 Sur 44 Sur 0 -- -- 68
2019-06-13 01:00:00 11.1 32 Sur 47 Sur 0 -- -- 66
2019-06-13 00:00:00 12 31 Sur 44 Sur 0 -- -- 63
2019-06-12 23:00:00 13.3 22 Sur 35 Sudeste 0 -- -- 58
2019-06-12 22:00:00 13.9 12 Este 24 Sudeste 0 -- -- 51
2019-06-12 21:00:00 16.1 10 Este 28 Este 0 -- -- 41
2019-06-12 20:00:00 19.4 19 Este 28 Este 0 -- -- 33
2019-06-12 19:00:00 21.1 7 Nordeste 21 Nordeste 0 -- -- 25
2019-06-12 18:00:00 20.6 7 Este 22 Nordeste 0 -- -- 27
2019-06-12 17:00:00 21 10 Sur 35 Sudeste 0 -- -- 27
2019-06-12 16:00:00 19.8 8 Sudeste 22 Este 0 -- -- 31
2019-06-12 15:00:00 18.8 5 Sudeste 22 Sur 0 -- -- 33
2019-06-12 14:00:00 18 13 Sur 27 Sudoeste 0 -- -- 33
2019-06-12 13:00:00 16 9 Este 22 Norte 0 -- -- 37
2019-06-12 12:00:00 14.9 8 Oeste 17 Noroeste 0 -- -- 42
2019-06-12 11:00:00 13.7 6 Sur 17 Sudeste 0 -- -- 50
2019-06-12 10:00:00 11.3 11 Sur 18 Sur 0 -- -- 60
2019-06-12 09:00:00 7.1 4 Este 10 Sudeste 0 -- -- 89
2019-06-12 08:00:00 3 2 Nordeste 6 Sudoeste 0 -- -- 96
2019-06-12 07:00:00 -0.7 8 Sudoeste 9 Sudoeste 0 -- -- 95
2019-06-12 06:00:00 -0.3 2 Sudoeste 5 Norte 0 -- -- 93
2019-06-12 05:00:00 0.5 3 Oeste 10 Sur 0 -- -- 94
2019-06-12 04:00:00 1.1 9 Sudoeste 12 Sur 0 -- -- 94
2019-06-12 03:00:00 1.2 10 Sur 12 Sur 0 -- -- 94
2019-06-12 02:00:00 1.9 2 Sudoeste 9 Sur 0 -- -- 92
2019-06-12 01:00:00 2.8 3 Sur 8 Sur 0 -- -- 90
2019-06-12 00:00:00 3.9 5 Sur 10 Este 0 -- -- 88
2019-06-11 23:00:00 6.6 4 Este 12 Este 0 -- -- 81
2019-06-11 22:00:00 9.1 5 Sudeste 7 Sudeste 0 -- -- 81
2019-06-11 21:00:00 12 3 Norte 13 Noroeste 0 -- -- 64
2019-06-11 20:00:00 11.1 12 Noroeste 24 Noroeste 0 -- -- 65
2019-06-11 19:00:00 12.1 4 Este 10 Sudeste 0 -- -- 62
2019-06-11 18:00:00 10.5 3 Noroeste 9 Norte 0 -- -- 74
2019-06-11 17:00:00 7.8 6 Norte 54 Norte 1.2 -- -- 85
2019-06-11 16:00:00 11.4 10 Nordeste 34 Nordeste 0 -- -- 61
2019-06-11 15:00:00 9.4 5 Nordeste 16 Este 0 -- -- 73
2019-06-11 14:00:00 8.1 9 Nordeste 22 Norte 0 -- -- 79
2019-06-11 13:00:00 7 15 Nordeste 28 Nordeste 0 -- -- 84
2019-06-11 12:00:00 6.9 14 Nordeste 25 Nordeste 0 -- -- 84
2019-06-11 11:00:00 6.8 17 Nordeste 33 Nordeste 0 -- -- 83
2019-06-11 10:00:00 7.2 18 Nordeste 27 Nordeste 0 -- -- 79
2019-06-11 09:00:00 7 13 Nordeste 26 Nordeste 0 -- -- 81
2019-06-11 08:00:00 7 17 Nordeste 26 Nordeste 0 -- -- 81
2019-06-11 07:00:00 6.9 15 Este 28 Nordeste 0 -- -- 75
2019-06-11 06:00:00 7.4 17 Este 33 Nordeste 0 -- -- 72
2019-06-11 05:00:00 7.7 18 Este 29 Este 0 -- -- 67
2019-06-11 04:00:00 8.5 15 Este 28 Este 0 -- -- 70
2019-06-11 03:00:00 8.6 10 Este 20 Este 0 -- -- 68
2019-06-11 02:00:00 8.5 10 Este 18 Este 0 -- -- 69
2019-06-11 01:00:00 8 11 Este 19 Este 0 -- -- 70
2019-06-11 00:00:00 8.5 11 Este 30 Este 0 -- -- 71
2019-06-10 23:00:00 9.6 16 Este 32 Este 0 -- -- 69
2019-06-10 22:00:00 11.2 21 Este 33 Este 0 -- -- 63
2019-06-10 21:00:00 13.6 20 Este 32 Nordeste 0 -- -- 57
2019-06-10 20:00:00 15.3 19 Este 37 Nordeste 0 -- -- 52
2019-06-10 19:00:00 16.7 19 Este 37 Este 0 -- -- 50
2019-06-10 18:00:00 21.1 13 Nordeste 40 Noroeste 0 -- -- 38
2019-06-10 17:00:00 21.2 21 Norte 45 Noroeste 0 -- -- 33
2019-06-10 16:00:00 21.3 14 Norte 37 Noroeste 0 -- -- 35
2019-06-10 15:00:00 20.7 18 Noroeste 32 Noroeste 0 -- -- 38
2019-06-10 14:00:00 19.3 13 Norte 32 Norte 0 -- -- 42
2019-06-10 13:00:00 19 13 Noroeste 24 Norte 0 -- -- 43
2019-06-10 12:00:00 17.1 12 Norte 24 Noroeste 0 -- -- 54
2019-06-10 11:00:00 14.9 11 Noroeste 21 Norte 0 -- -- 62
2019-06-10 10:00:00 13.1 9 Norte 20 Norte 0 -- -- 75
2019-06-10 09:00:00 11.4 8 Noroeste 16 Noroeste 0 -- -- 79
2019-06-10 08:00:00 10.7 10 Noroeste 19 Noroeste 0 -- -- 84
2019-06-10 07:00:00 10.1 3 Este 6 Este 0 -- -- 89
2019-06-10 06:00:00 10 3 Sudeste 5 Este 0 -- -- 90
2019-06-10 05:00:00 9.6 4 Este 9 Nordeste 0 -- -- 92
2019-06-10 04:00:00 8.9 8 Este 19 Este 0 -- -- 93
2019-06-10 03:00:00 9.2 8 Este 27 Este 0 -- -- 92
2019-06-10 02:00:00 9.7 13 Nordeste 28 Este 0 -- -- 91
2019-06-10 01:00:00 10.7 8 Nordeste 17 Nordeste 0 -- -- 86
2019-06-10 00:00:00 12.7 7 Este 30 Este 0 -- -- 78
2019-06-09 23:00:00 15.1 17 Este 35 Nordeste 0 -- -- 68
2019-06-09 22:00:00 19 12 Oeste 19 Oeste 0 -- -- 31
2019-06-09 21:00:00 22.2 14 Oeste 32 Oeste 0 -- -- 27
2019-06-09 20:00:00 24.1 21 Oeste 33 Noroeste 0 -- -- 24
2019-06-09 19:00:00 24.9 23 Oeste 44 Oeste 0 -- -- 24
2019-06-09 18:00:00 25.4 21 Oeste 36 Oeste 0 -- -- 25
2019-06-09 17:00:00 25.4 23 Oeste 34 Oeste 0 -- -- 26
2019-06-09 16:00:00 25.6 18 Oeste 33 Oeste 0 -- -- 26
2019-06-09 15:00:00 25.1 15 Oeste 34 Oeste 0 -- -- 27
2019-06-09 14:00:00 24.9 12 Noroeste 35 Oeste 0 -- -- 27
2019-06-09 13:00:00 23.7 19 Noroeste 34 Noroeste 0 -- -- 30
2019-06-09 12:00:00 23 17 Oeste 28 Oeste 0 -- -- 33
2019-06-09 11:00:00 21 8 Nordeste 18 Nordeste 0 -- -- 43
2019-06-09 10:00:00 18.7 7 Oeste 13 Oeste 0 -- -- 51
2019-06-09 09:00:00 16.6 3 Nordeste 18 Sur 0 -- -- 54
2019-06-09 08:00:00 14 17 Sur 26 Sudoeste 0 -- -- 58
2019-06-09 07:00:00 12.7 18 Sur 29 Sur 0 -- -- 58
2019-06-09 06:00:00 13.2 13 Sur 23 Sur 0 -- -- 59
2019-06-09 05:00:00 13.1 8 Sur 19 Sur 0 -- -- 61
2019-06-09 04:00:00 13.3 9 Sur 23 Sur 0 -- -- 61
2019-06-09 03:00:00 13.3 4 Sudeste 22 Sur 0 -- -- 63
2019-06-09 02:00:00 13.7 8 Este 41 Sur 0 -- -- 61
2019-06-09 01:00:00 14.6 27 Sur 50 Sur 0 -- -- 57
2019-06-09 00:00:00 14.8 33 Sur 50 Sur 0 -- -- 53
2019-06-08 23:00:00 15.5 35 Sur 54 Sur 0 -- -- 53
2019-06-08 22:00:00 16.7 37 Sur 54 Sur 0 -- -- 51
2019-06-08 21:00:00 19.3 31 Sur 44 Sur 0 -- -- 46
2019-06-08 20:00:00 20.5 33 Sur 47 Sur 0 -- -- 44
2019-06-08 19:00:00 22.6 34 Sur 49 Sur 0 -- -- 42
2019-06-08 18:00:00 23.2 35 Sur 53 Sur 0 -- -- 40
2019-06-08 17:00:00 23.7 35 Sur 52 Sudeste 0 -- -- 41
2019-06-08 16:00:00 24.7 32 Sur 60 Sudeste 0 -- -- 37
2019-06-08 15:00:00 23.8 34 Sudeste 45 Sudeste 0 -- -- 39
2019-06-08 14:00:00 22.6 31 Sudeste 46 Sur 0 -- -- 41
2019-06-08 13:00:00 21.5 26 Sur 40 Sur 0 -- -- 42
2019-06-08 12:00:00 18.4 10 Sudeste 29 Sudeste 0 -- -- 46
2019-06-08 11:00:00 17.9 21 Sur 37 Sur 0 -- -- 41
2019-06-08 10:00:00 15.5 15 Sudeste 26 Sudeste 0 -- -- 43
2019-06-08 09:00:00 12.5 12 Sudeste 18 Este 0 -- -- 53
2019-06-08 08:00:00 6.4 3 Sur 5 Sur 0 -- -- 88
2019-06-08 07:00:00 3.4 3 Sur 9 Este 0 -- -- 87
2019-06-08 06:00:00 4.1 6 Este 12 Este 0 -- -- 84
2019-06-08 05:00:00 4.7 11 Este 15 Este 0 -- -- 87
2019-06-08 04:00:00 2.8 2 Sur 5 Sur 0 -- -- 84
2019-06-08 03:00:00 3.4 3 Sudoeste 13 Sudeste 0 -- -- 83
2019-06-08 02:00:00 4.9 9 Sudoeste 14 Sudoeste 0 -- -- 80
2019-06-08 01:00:00 5.2 6 Sudoeste 9 Sudoeste 0 -- -- 80
2019-06-08 00:00:00 6.4 7 Oeste 9 Sudeste 0 -- -- 73
2019-06-07 23:00:00 10.8 4 Noroeste 16 Noroeste 0 -- -- 57
2019-06-07 22:00:00 13.3 6 Noroeste 12 Norte 0 -- -- 47
2019-06-07 21:00:00 16.2 9 Norte 23 Norte 0 -- -- 40
2019-06-07 20:00:00 17.5 13 Norte 33 Nordeste 0 -- -- 36
2019-06-07 19:00:00 18.2 17 Norte 30 Norte 0 -- -- 34
2019-06-07 18:00:00 18.2 15 Norte 31 Norte 0 -- -- 35
2019-06-07 17:00:00 18.2 18 Norte 33 Norte 0 -- -- 36
2019-06-07 16:00:00 17.9 13 Nordeste 32 Norte 0 -- -- 39
2019-06-07 15:00:00 17.5 15 Norte 33 Norte 0 -- -- 41
2019-06-07 14:00:00 16.6 16 Noroeste 36 Noroeste 0 -- -- 37
2019-06-07 13:00:00 15.3 21 Noroeste 40 Noroeste 0 -- -- 35
2019-06-07 12:00:00 14 18 Noroeste 36 Oeste 0 -- -- 47
2019-06-07 11:00:00 11.4 22 Noroeste 32 Noroeste 0 -- -- 71
2019-06-07 10:00:00 9.1 9 Norte 18 Norte 0 -- -- 89
2019-06-07 09:00:00 7.6 9 Norte 23 Norte 1.4 -- -- 94
2019-06-07 08:00:00 7.2 15 Norte 35 Norte 0 -- -- 91
2019-06-07 07:00:00 11.8 9 Oeste 17 Oeste 0 -- -- 71
2019-06-07 06:00:00 8.7 5 Sudoeste 12 Sudoeste 0 -- -- 82
2019-06-07 05:00:00 8.8 7 Oeste 22 Sur 0 -- -- 82
2019-06-07 04:00:00 10.6 19 Sur 33 Sur 0 -- -- 86
2019-06-07 03:00:00 11.2 23 Sur 41 Sur 0 -- -- 80
2019-06-07 02:00:00 12.2 26 Sur 44 Sur 0 -- -- 73
2019-06-07 01:00:00 13.5 34 Sur 52 Sur 0 -- -- 63
2019-06-07 00:00:00 14.3 39 Sur 56 Sur 0 -- -- 56
2019-06-06 23:00:00 14.9 30 Sur 49 Sur 0 -- -- 59
2019-06-06 22:00:00 16.2 27 Sur 49 Sur 0 -- -- 56
2019-06-06 21:00:00 19 28 Sur 45 Sudoeste 0 -- -- 45
2019-06-06 20:00:00 21.8 23 Sudoeste 51 Sudoeste 0 -- -- 29
2019-06-06 19:00:00 21.4 28 Sudoeste 46 Sudoeste 0 -- -- 31
2019-06-06 18:00:00 23.2 31 Sudoeste 49 Sudoeste 0 -- -- 28
2019-06-06 17:00:00 23.3 22 Sudoeste 40 Sudoeste 0 -- -- 25
2019-06-06 16:00:00 22 20 Sudoeste 42 Sudoeste 0 -- -- 27
2019-06-06 15:00:00 21.1 31 Sudoeste 50 Sudoeste 0 -- -- 24
2019-06-06 14:00:00 20.6 26 Sudoeste 43 Sudoeste 0 -- -- 25
2019-06-06 13:00:00 19.2 19 Sudoeste 36 Oeste 0 -- -- 30
2019-06-06 12:00:00 18.4 16 Sudoeste 32 Oeste 0 -- -- 33
2019-06-06 11:00:00 17 16 Sudoeste 30 Sudoeste 0 -- -- 39
2019-06-06 10:00:00 13.8 5 Sudeste 10 Sudeste 0 -- -- 52
2019-06-06 09:00:00 9.6 4 Sur 6 Sudeste 0 -- -- 78
2019-06-06 08:00:00 5.6 0 Calma 9 Sudoeste 0 -- -- 95
2019-06-06 07:00:00 2.2 4 Sudoeste 9 Sudoeste 0 -- -- 95
2019-06-06 06:00:00 2.2 5 Sudoeste 8 Sudoeste 0 -- -- 93
2019-06-06 05:00:00 2.8 0 Calma 4 Sur 0 -- -- 93
2019-06-06 04:00:00 3.6 2 Oeste 5 Oeste 0 -- -- 91
2019-06-06 03:00:00 4.4 3 Sudoeste 6 Sudeste 0 -- -- 90
2019-06-06 02:00:00 5.2 4 Sudeste 8 Sudeste 0 -- -- 89
2019-06-06 01:00:00 6.3 6 Sudeste 10 Este 0 -- -- 86
2019-06-06 00:00:00 7.7 5 Sudeste 15 Sudeste 0 -- -- 84
2019-06-05 23:00:00 8.4 7 Sudeste 13 Este 0 -- -- 83
2019-06-05 22:00:00 9.7 8 Este 24 Nordeste 0 -- -- 76
2019-06-05 21:00:00 12.3 14 Este 28 Nordeste 0 -- -- 65
2019-06-05 20:00:00 14.8 12 Norte 26 Norte 0 -- -- 48
2019-06-05 19:00:00 15.6 18 Norte 35 Norte 0 -- -- 44
2019-06-05 18:00:00 16.5 20 Noroeste 39 Noroeste 0 -- -- 44
2019-06-05 17:00:00 15.8 22 Noroeste 38 Norte 0 -- -- 46
2019-06-05 16:00:00 14.6 23 Norte 42 Noroeste 0 -- -- 53
2019-06-05 15:00:00 13.2 21 Norte 41 Noroeste 0 -- -- 57
2019-06-05 14:00:00 13.4 31 Noroeste 49 Noroeste 0 -- -- 54
2019-06-05 13:00:00 11.3 24 Noroeste 39 Noroeste 0.2 -- -- 75
2019-06-05 12:00:00 8.5 34 Noroeste 57 Noroeste 0.6 -- -- 79
2019-06-05 11:00:00 15.1 20 Noroeste 45 Oeste 0 -- -- 52
2019-06-05 10:00:00 13.7 19 Noroeste 33 Oeste 0 -- -- 71
2019-06-05 09:00:00 12.6 17 Noroeste 26 Oeste 0 -- -- 79
2019-06-05 08:00:00 12.6 25 Oeste 50 Oeste 0 -- -- 81
2019-06-05 07:00:00 13.9 22 Oeste 33 Oeste 0 -- -- 71
2019-06-05 06:00:00 12.6 6 Oeste 12 Sudoeste 0 -- -- 76
2019-06-05 05:00:00 12.4 3 Este 9 Sudeste 0 -- -- 80
2019-06-05 04:00:00 13.4 0 Calma 5 Sudeste 0 -- -- 76
2019-06-05 03:00:00 15.1 2 Sudeste 12 Norte 0 -- -- 71
2019-06-05 02:00:00 15.3 2 Nordeste 9 Este 0 -- -- 70
2019-06-05 01:00:00 15.3 4 Este 10 Este 0 -- -- 65
2019-06-05 00:00:00 16.8 4 Este 19 Oeste 0 -- -- 54
2019-06-04 23:00:00 19.1 12 Oeste 19 Oeste 0 -- -- 47
2019-06-04 22:00:00 21.5 12 Oeste 30 Oeste 0 -- -- 40
2019-06-04 21:00:00 24 18 Oeste 40 Oeste 0 -- -- 34
2019-06-04 20:00:00 26.7 19 Oeste 41 Sudoeste 0 -- -- 30
2019-06-04 19:00:00 27.5 25 Oeste 49 Oeste 0 -- -- 26
2019-06-04 18:00:00 27.2 22 Oeste 42 Oeste 0 -- -- 26
2019-06-04 17:00:00 27.7 21 Sudoeste 41 Oeste 0 -- -- 25
2019-06-04 16:00:00 28.4 24 Oeste 50 Oeste 0 -- -- 21
2019-06-04 15:00:00 28.9 23 Sudoeste 45 Sudoeste 0 -- -- 22
2019-06-04 14:00:00 27.8 29 Oeste 45 Sudoeste 0 -- -- 21
2019-06-04 13:00:00 27.1 28 Oeste 45 Oeste 0 -- -- 23
2019-06-04 12:00:00 26.2 21 Oeste 40 Oeste 0 -- -- 29
2019-06-04 11:00:00 25.1 22 Oeste 37 Oeste 0 -- -- 30
2019-06-04 10:00:00 23.7 18 Oeste 27 Oeste 0 -- -- 34
2019-06-04 09:00:00 17.9 5 Sudeste 9 Sudeste 0 -- -- 57
2019-06-04 08:00:00 11.5 3 Oeste 7 Oeste 0 -- -- 75
2019-06-04 07:00:00 9.3 3 Noroeste 8 Sudoeste 0 -- -- 77
2019-06-04 06:00:00 10.2 3 Noroeste 5 Noroeste 0 -- -- 73
2019-06-04 05:00:00 13.1 4 Norte 6 Norte 0 -- -- 64
2019-06-04 04:00:00 13.8 6 Nordeste 21 Sur 0 -- -- 61
2019-06-04 03:00:00 14.8 4 Nordeste 12 Sudeste 0 -- -- 58
2019-06-04 02:00:00 14.9 4 Nordeste 20 Sudoeste 0 -- -- 60
2019-06-04 01:00:00 17.1 11 Sudoeste 33 Sur 0 -- -- 52
2019-06-04 00:00:00 18.6 22 Sur 31 Sudoeste 0 -- -- 50
2019-06-03 23:00:00 19.2 17 Sur 24 Sur 0 -- -- 48
2019-06-03 22:00:00 18.8 8 Sudoeste 14 Sudoeste 0 -- -- 44
2019-06-03 21:00:00 25.9 11 Oeste 28 Oeste 0 -- -- 26
2019-06-03 20:00:00 28.1 23 Oeste 36 Oeste 0 -- -- 20
2019-06-03 19:00:00 29.5 17 Oeste 35 Oeste 0 -- -- 21
2019-06-03 18:00:00 29.5 19 Oeste 41 Oeste 0 -- -- 23
2019-06-03 17:00:00 28.8 15 Oeste 40 Oeste 0 -- -- 25
2019-06-03 16:00:00 29.1 24 Oeste 41 Oeste 0 -- -- 24
2019-06-03 15:00:00 29.3 26 Oeste 46 Sudoeste 0 -- -- 25
2019-06-03 14:00:00 28.1 21 Oeste 45 Oeste 0 -- -- 26
2019-06-03 13:00:00 28.1 8 Sudeste 21 Este 0 -- -- 30
2019-06-03 12:00:00 26.1 4 Sur 10 Sudeste 0 -- -- 35
2019-06-03 11:00:00 22.8 5 Sudeste 13 Nordeste 0 -- -- 39
2019-06-03 10:00:00 21.3 4 Nordeste 11 Norte 0 -- -- 44
2019-06-03 09:00:00 16.8 3 Norte 6 Norte 0 -- -- 53
2019-06-03 08:00:00 15.4 4 Norte 11 Oeste 0 -- -- 56
2019-06-03 07:00:00 14.3 5 Noroeste 18 Sur 0 -- -- 56
2019-06-03 06:00:00 14.2 6 Sudoeste 15 Sur 0 -- -- 55
2019-06-03 05:00:00 13.6 0 Calma 8 Norte 0 -- -- 58
2019-06-03 04:00:00 13.9 2 Norte 12 Sudeste 0 -- -- 59
2019-06-03 03:00:00 15.8 10 Sur 21 Sudoeste 0 -- -- 51
2019-06-03 02:00:00 16.8 12 Sudoeste 35 Sur 0 -- -- 48
2019-06-03 01:00:00 18.2 24 Sudoeste 40 Sur 0 -- -- 45
2019-06-03 00:00:00 19.6 21 Sudeste 40 Sur 0 -- -- 43
2019-06-02 23:00:00 20.8 22 Sur 39 Sur 0 -- -- 41
2019-06-02 22:00:00 22 23 Sur 40 Sudeste 0 -- -- 39
2019-06-02 21:00:00 24.9 17 Sur 24 Sur 0 -- -- 36
2019-06-02 20:00:00 29.5 3 Norte 25 Norte 0 -- -- 27
2019-06-02 19:00:00 29.6 7 Este 17 Norte 0 -- -- 24
2019-06-02 18:00:00 30.9 11 Noroeste 38 Oeste 0 -- -- 23
2019-06-02 17:00:00 30.6 11 Oeste 24 Noroeste 0 -- -- 22
2019-06-02 16:00:00 30 8 Norte 25 Noroeste 0 -- -- 24
2019-06-02 15:00:00 29.6 6 Noroeste 16 Nordeste 0 -- -- 24
2019-06-02 14:00:00 29.1 12 Noroeste 25 Noroeste 0 -- -- 26
2019-06-02 13:00:00 27.6 9 Norte 18 Nordeste 0 -- -- 29
2019-06-02 12:00:00 25.7 10 Nordeste 15 Oeste 0 -- -- 35
2019-06-02 11:00:00 23.5 4 Sudeste 9 Este 0 -- -- 38
2019-06-02 10:00:00 20.1 3 Este 5 Este 0 -- -- 48
2019-06-02 09:00:00 16.3 2 Nordeste 6 Norte 0 -- -- 54
2019-06-02 08:00:00 12.4 2 Norte 5 Noroeste 0 -- -- 69
2019-06-02 07:00:00 9.3 0 Calma 7 Norte 0 -- -- 73
2019-06-02 06:00:00 10.1 5 Norte 8 Nordeste 0 -- -- 71
2019-06-02 05:00:00 10.6 2 Norte 6 Nordeste 0 -- -- 69
2019-06-02 04:00:00 11.1 5 Norte 6 Nordeste 0 -- -- 69
2019-06-02 03:00:00 12.2 2 Noroeste 8 Norte 0 -- -- 65
2019-06-02 02:00:00 14.7 3 Nordeste 12 Este 0 -- -- 56
2019-06-02 01:00:00 15.9 4 Nordeste 31 Sur 0 -- -- 53
2019-06-02 00:00:00 17.8 24 Sur 35 Sur 0 -- -- 48
2019-06-01 23:00:00 19.4 23 Sur 34 Sur 0 -- -- 47
2019-06-01 22:00:00 18.7 12 Sur 19 Sur 0 -- -- 53
2019-06-01 21:00:00 23.7 12 Este 24 Este 0 -- -- 40
2019-06-01 20:00:00 26.7 16 Este 25 Este 0 -- -- 35
2019-06-01 19:00:00 28.3 10 Este 23 Este 0 -- -- 24
2019-06-01 18:00:00 28.3 7 Este 22 Este 0 -- -- 24
2019-06-01 17:00:00 28.5 9 Nordeste 20 Este 0 -- -- 24
2019-06-01 16:00:00 27.7 10 Este 22 Nordeste 0 -- -- 24
2019-06-01 15:00:00 27 11 Este 21 Este 0 -- -- 26
2019-06-01 14:00:00 26.2 8 Sur 18 Este 0 -- -- 30
2019-06-01 13:00:00 24.6 4 Nordeste 12 Norte 0 -- -- 36
2019-06-01 12:00:00 23.2 3 Sudeste 12 Sur 0 -- -- 36
2019-06-01 11:00:00 21.3 3 Noroeste 14 Sudeste 0 -- -- 46
2019-06-01 10:00:00 18.3 3 Sudeste 7 Sudeste 0 -- -- 58
2019-06-01 09:00:00 14.2 0 Calma 4 Noroeste 0 -- -- 68
2019-06-01 08:00:00 9.8 0 Calma 8 Sudoeste 0 -- -- 86
2019-06-01 07:00:00 7.2 5 Oeste 16 Sudoeste 0 -- -- 88
2019-06-01 06:00:00 7.2 4 Sudoeste 6 Sudoeste 0 -- -- 85
2019-06-01 05:00:00 9.7 4 Oeste 6 Oeste 0 -- -- 81
2019-06-01 04:00:00 11.6 2 Este 18 Sur 0 -- -- 75
2019-06-01 03:00:00 12.7 12 Sur 19 Sudoeste 0 -- -- 73
2019-06-01 02:00:00 11.6 0 Calma 6 Norte 0 -- -- 75
2019-06-01 01:00:00 13.2 3 Nordeste 19 Sur 0 -- -- 70
2019-06-01 00:00:00 16.1 14 Sur 24 Sur 0 -- -- 62
2019-05-31 23:00:00 13.5 9 Sur 13 Sur 0 -- -- 64
2019-05-31 22:00:00 16.7 4 Sur 10 Nordeste 0 -- -- 50
2019-05-31 21:00:00 21.4 10 Nordeste 23 Nordeste 0 -- -- 37
2019-05-31 20:00:00 24.5 18 Nordeste 28 Nordeste 0 -- -- 34
2019-05-31 19:00:00 26 18 Nordeste 28 Nordeste 0 -- -- 33
2019-05-31 18:00:00 27.2 14 Nordeste 24 Nordeste 0 -- -- 27
2019-05-31 17:00:00 27.2 12 Este 25 Este 0 -- -- 25
2019-05-31 16:00:00 26.7 9 Este 21 Nordeste 0 -- -- 24
2019-05-31 15:00:00 26 8 Sudeste 25 Sur 0 -- -- 26
2019-05-31 14:00:00 25.2 8 Sur 22 Noroeste 0 -- -- 26
2019-05-31 13:00:00 23.9 8 Este 15 Sur 0 -- -- 30
2019-05-31 12:00:00 22.7 9 Sur 21 Sudoeste 0 -- -- 33
2019-05-31 11:00:00 20.4 5 Sudoeste 12 Sur 0 -- -- 46
2019-05-31 10:00:00 16.5 3 Sudeste 8 Sudeste 0 -- -- 58
2019-05-31 09:00:00 12.4 3 Sur 6 Sur 0 -- -- 73
2019-05-31 08:00:00 8 0 Calma 8 Sudoeste 0 -- -- 86
2019-05-31 07:00:00 3.6 4 Sudoeste 6 Sudoeste 0 -- -- 91
2019-05-31 06:00:00 3.8 3 Sudoeste 5 Sudoeste 0 -- -- 88
2019-05-31 05:00:00 4.8 0 Calma 5 Sudoeste 0 -- -- 87
2019-05-31 04:00:00 6 3 Oeste 7 Noroeste 0 -- -- 86
2019-05-31 03:00:00 7.6 4 Noroeste 6 Noroeste 0 -- -- 80
2019-05-31 02:00:00 7.8 4 Sudoeste 11 Sudoeste 0 -- -- 79
2019-05-31 01:00:00 8.9 3 Sudoeste 11 Sudoeste 0 -- -- 78
2019-05-31 00:00:00 9.7 6 Sudoeste 13 Oeste 0 -- -- 76
2019-05-30 23:00:00 11.4 5 Oeste 9 Oeste 0 -- -- 71
2019-05-30 22:00:00 17 7 Este 10 Este 0 -- -- 50
2019-05-30 21:00:00 19.9 10 Este 18 Nordeste 0 -- -- 44
2019-05-30 20:00:00 22.5 13 Nordeste 22 Nordeste 0 -- -- 35
2019-05-30 19:00:00 23.4 12 Nordeste 30 Nordeste 0 -- -- 33
2019-05-30 18:00:00 24.1 14 Nordeste 28 Norte 0 -- -- 31
2019-05-30 17:00:00 23.9 10 Nordeste 23 Norte 0 -- -- 30
2019-05-30 16:00:00 23.2 10 Nordeste 28 Nordeste 0 -- -- 34
2019-05-30 15:00:00 22.5 9 Nordeste 20 Este 0 -- -- 38
2019-05-30 14:00:00 21.1 9 Nordeste 22 Nordeste 0 -- -- 40
2019-05-30 13:00:00 20 13 Este 25 Norte 0 -- -- 43
2019-05-30 12:00:00 18.5 13 Norte 23 Norte 0 -- -- 46
2019-05-30 11:00:00 16.2 8 Norte 17 Norte 0 -- -- 55
2019-05-30 10:00:00 13.3 3 Nordeste 8 Nordeste 0 -- -- 64
2019-05-30 09:00:00 10.3 3 Este 6 Nordeste 0 -- -- 80
2019-05-30 08:00:00 6.3 2 Este 7 Sudoeste 0 -- -- 89
2019-05-30 07:00:00 3.1 4 Oeste 9 Sudoeste 0 -- -- 93
2019-05-30 06:00:00 3.3 7 Oeste 9 Sudoeste 0 -- -- 91
2019-05-30 05:00:00 4 2 Sudoeste 10 Noroeste 0 -- -- 86
2019-05-30 04:00:00 4.7 7 Sudoeste 13 Sudoeste 0 -- -- 88
2019-05-30 03:00:00 5.2 5 Sudoeste 9 Sudoeste 0 -- -- 85
2019-05-30 02:00:00 6.6 7 Oeste 12 Oeste 0 -- -- 83
2019-05-30 01:00:00 9.3 6 Noroeste 15 Noroeste 0 -- -- 74
2019-05-30 00:00:00 10.3 6 Noroeste 12 Sudoeste 0 -- -- 69
2019-05-29 23:00:00 11.6 5 Sudoeste 24 Norte 0 -- -- 64
2019-05-29 22:00:00 12.6 17 Norte 26 Norte 0 -- -- 62
2019-05-29 21:00:00 14.9 15 Norte 28 Norte 0 -- -- 55
2019-05-29 20:00:00 17 18 Norte 35 Norte 0 -- -- 50
2019-05-29 19:00:00 18 20 Norte 33 Norte 0 -- -- 46
2019-05-29 18:00:00 18.4 21 Norte 32 Nordeste 0 -- -- 44
2019-05-29 17:00:00 18.2 23 Nordeste 35 Nordeste 0 -- -- 45
2019-05-29 16:00:00 18 21 Nordeste 40 Norte 0 -- -- 43
2019-05-29 15:00:00 17 22 Norte 37 Norte 0 -- -- 42
2019-05-29 14:00:00 16 20 Norte 35 Norte 0 -- -- 48
2019-05-29 13:00:00 14.6 20 Norte 37 Norte 0 -- -- 52
2019-05-29 12:00:00 13.5 27 Nordeste 44 Nordeste 0 -- -- 57
2019-05-29 11:00:00 11.3 20 Norte 40 Nordeste 0 -- -- 64
2019-05-29 10:00:00 10.4 18 Nordeste 31 Norte 0 -- -- 65
2019-05-29 09:00:00 8.8 9 Norte 21 Norte 0 -- -- 68
2019-05-29 08:00:00 6.5 10 Noroeste 23 Noroeste 0 -- -- 77
2019-05-29 07:00:00 3.7 9 Norte 21 Noroeste 0 -- -- 85
2019-05-29 06:00:00 3.6 8 Noroeste 17 Noroeste 0 -- -- 84
2019-05-29 05:00:00 4.1 9 Noroeste 13 Noroeste 0 -- -- 83
2019-05-29 04:00:00 4.5 5 Noroeste 13 Noroeste 0 -- -- 80
2019-05-29 03:00:00 5.3 9 Oeste 19 Noroeste 0 -- -- 79
2019-05-29 02:00:00 6.8 12 Norte 22 Norte 0 -- -- 72
2019-05-29 01:00:00 7.2 8 Norte 23 Norte 0 -- -- 71
2019-05-29 00:00:00 7.8 12 Norte 26 Norte 0 -- -- 72
2019-05-28 23:00:00 8.1 11 Nordeste 18 Norte 0 -- -- 71
2019-05-28 22:00:00 9.4 9 Nordeste 26 Nordeste 0 -- -- 67
2019-05-28 21:00:00 12.1 16 Nordeste 29 Nordeste 0 -- -- 58
2019-05-28 20:00:00 14.1 21 Nordeste 32 Norte 0 -- -- 53
2019-05-28 19:00:00 15.7 19 Norte 37 Norte 0 -- -- 49
2019-05-28 18:00:00 15.6 18 Norte 35 Norte 0 -- -- 49
2019-05-28 17:00:00 17.8 17 Nordeste 33 Norte 0 -- -- 45
2019-05-28 16:00:00 17.3 15 Norte 27 Noroeste 0 -- -- 44
2019-05-28 15:00:00 16.9 11 Nordeste 24 Noroeste 0 -- -- 46
2019-05-28 14:00:00 15.4 8 Nordeste 18 Noroeste 0 -- -- 49
2019-05-28 13:00:00 14.2 11 Norte 19 Norte 0 -- -- 54
2019-05-28 12:00:00 12.7 12 Noroeste 25 Noroeste 0 -- -- 57
2019-05-28 11:00:00 11.2 10 Norte 16 Noroeste 0 -- -- 62
2019-05-28 10:00:00 9.2 7 Oeste 12 Oeste 0 -- -- 79
2019-05-28 09:00:00 7.9 3 Este 14 Este 0 -- -- 82
2019-05-28 08:00:00 7.2 10 Este 16 Este 0 -- -- 87
2019-05-28 07:00:00 7.1 5 Este 7 Este 0 -- -- 91
2019-05-28 06:00:00 6.3 2 Sudeste 9 Sudeste 0 -- -- 94
2019-05-28 05:00:00 4.7 6 Sudeste 10 Sudeste 0 -- -- 93
2019-05-28 04:00:00 5.5 4 Sudeste 6 Nordeste 0 -- -- 90
2019-05-28 03:00:00 6.3 0 Calma 14 Este 0 -- -- 89
2019-05-28 02:00:00 7.9 5 Nordeste 18 Nordeste 0 -- -- 86
2019-05-28 01:00:00 10.4 11 Nordeste 22 Nordeste 0 -- -- 78
2019-05-28 00:00:00 11.3 15 Nordeste 22 Norte 0 -- -- 80
2019-05-27 23:00:00 12 9 Nordeste 21 Nordeste 0 -- -- 80
2019-05-27 22:00:00 13.5 9 Nordeste 21 Nordeste 0 -- -- 73
2019-05-27 21:00:00 15 14 Nordeste 27 Nordeste 0 -- -- 66
2019-05-27 20:00:00 17.1 20 Nordeste 34 Nordeste 0 -- -- 62
2019-05-27 19:00:00 18.3 22 Nordeste 39 Este 0 -- -- 55
2019-05-27 18:00:00 19.1 26 Este 36 Este 0 -- -- 53
2019-05-27 17:00:00 21.1 13 Nordeste 32 Nordeste 0 -- -- 47
2019-05-27 16:00:00 21.4 13 Norte 28 Nordeste 0 -- -- 43
2019-05-27 15:00:00 21.4 17 Norte 35 Nordeste 0 -- -- 45
2019-05-27 14:00:00 20.4 14 Norte 24 Noroeste 0 -- -- 43
2019-05-27 13:00:00 18.9 12 Norte 26 Noroeste 0 -- -- 49
2019-05-27 12:00:00 17.5 16 Noroeste 31 Norte 0 -- -- 50
2019-05-27 11:00:00 16.2 11 Noroeste 19 Noroeste 0 -- -- 58
2019-05-27 10:00:00 13.9 13 Norte 21 Noroeste 0 -- -- 66
2019-05-27 09:00:00 11.7 5 Este 8 Este 0 -- -- 84
2019-05-27 08:00:00 8.4 4 Nordeste 15 Noroeste 0 -- -- 88
2019-05-27 07:00:00 6.3 9 Noroeste 13 Oeste 0 -- -- 91
2019-05-27 06:00:00 4.7 0 Calma 9 Noroeste 0 -- -- 86
2019-05-27 05:00:00 6.6 5 Noroeste 9 Noroeste 0 -- -- 90
2019-05-27 04:00:00 7.6 7 Noroeste 12 Noroeste 0 -- -- 87
2019-05-27 03:00:00 5.8 8 Sudoeste 11 Sudoeste 0 -- -- 91
2019-05-27 02:00:00 7.4 9 Noroeste 15 Noroeste 0 -- -- 87
2019-05-27 01:00:00 6.1 5 Sudoeste 14 Sudoeste 0 -- -- 90
2019-05-27 00:00:00 7.6 4 Sudoeste 9 Oeste 0 -- -- 85
2019-05-26 23:00:00 10 4 Sur 14 Nordeste 0 -- -- 77
2019-05-26 22:00:00 11.1 7 Nordeste 23 Nordeste 0 -- -- 75
2019-05-26 21:00:00 13.5 15 Nordeste 25 Este 0 -- -- 65
2019-05-26 20:00:00 15.9 17 Nordeste 29 Nordeste 0 -- -- 57
2019-05-26 19:00:00 17.2 21 Nordeste 33 Nordeste 0 -- -- 55
2019-05-26 18:00:00 18.2 18 Nordeste 28 Norte 0 -- -- 49
2019-05-26 17:00:00 18.1 16 Nordeste 33 Nordeste 0 -- -- 49
2019-05-26 16:00:00 17.2 13 Nordeste 34 Norte 0 -- -- 54
2019-05-26 15:00:00 16.4 12 Nordeste 33 Norte 0 -- -- 54
2019-05-26 14:00:00 15.2 18 Norte 30 Norte 0 -- -- 56
2019-05-26 13:00:00 14.2 12 Nordeste 32 Nordeste 0 -- -- 61
2019-05-26 12:00:00 13.4 18 Norte 29 Nordeste 0 -- -- 59
2019-05-26 11:00:00 11.1 13 Norte 23 Norte 0 -- -- 69
2019-05-26 10:00:00 9.8 9 Norte 17 Norte 0 -- -- 71
2019-05-26 09:00:00 8 10 Norte 15 Norte 0 -- -- 80
2019-05-26 08:00:00 7.3 6 Norte 14 Norte 0 -- -- 84
2019-05-26 07:00:00 6.8 8 Noroeste 10 Noroeste 0 -- -- 83
2019-05-26 06:00:00 7.2 5 Norte 10 Este 0 -- -- 89
2019-05-26 05:00:00 6.9 6 Este 15 Este 0 -- -- 90
2019-05-26 04:00:00 6.2 5 Sudeste 9 Sur 0 -- -- 93
2019-05-26 03:00:00 7.2 3 Este 9 Norte 0 -- -- 85
2019-05-26 02:00:00 7.4 3 Oeste 12 Nordeste 0 -- -- 86
2019-05-26 01:00:00 7.5 2 Nordeste 15 Norte 0 -- -- 85
2019-05-26 00:00:00 9.6 8 Norte 16 Noroeste 0 -- -- 82
2019-05-25 23:00:00 9.6 5 Norte 15 Norte 0 -- -- 81
2019-05-25 22:00:00 10.6 4 Nordeste 21 Nordeste 0 -- -- 78
2019-05-25 21:00:00 12.2 11 Nordeste 32 Nordeste 0 -- -- 72
2019-05-25 20:00:00 15.5 16 Nordeste 30 Nordeste 0 -- -- 61
2019-05-25 19:00:00 15.4 14 Nordeste 31 Nordeste 0 -- -- 60
2019-05-25 18:00:00 16.8 19 Nordeste 30 Nordeste 0 -- -- 55
2019-05-25 17:00:00 16.1 15 Nordeste 26 Nordeste 0 -- -- 58
2019-05-25 16:00:00 15.6 15 Nordeste 31 Nordeste 0 -- -- 59
2019-05-25 15:00:00 14.7 17 Nordeste 31 Nordeste 0 -- -- 64
2019-05-25 14:00:00 14.5 22 Nordeste 33 Nordeste 0 -- -- 63
2019-05-25 13:00:00 14.4 18 Nordeste 30 Nordeste 0 -- -- 67
2019-05-25 12:00:00 12 19 Nordeste 34 Norte 0 -- -- 70
2019-05-25 11:00:00 11.1 25 Nordeste 40 Nordeste 0 -- -- 73
2019-05-25 10:00:00 9.7 23 Norte 38 Nordeste 0 -- -- 79
2019-05-25 09:00:00 9 13 Norte 21 Norte 0 -- -- 81
2019-05-25 08:00:00 8.6 13 Norte 25 Nordeste 0 -- -- 83
2019-05-25 07:00:00 8.4 14 Norte 24 Nordeste 0 -- -- 83
2019-05-25 06:00:00 8.5 8 Norte 19 Norte 0 -- -- 84
2019-05-25 05:00:00 8.6 9 Norte 19 Noroeste 0 -- -- 85
2019-05-25 04:00:00 8.8 15 Norte 41 Norte 0 -- -- 80
2019-05-25 03:00:00 9 19 Norte 38 Nordeste 0 -- -- 81
2019-05-25 02:00:00 9.3 21 Norte 38 Norte 0 -- -- 80
2019-05-25 01:00:00 9.8 17 Norte 27 Nordeste 0 -- -- 80
2019-05-25 00:00:00 9.9 13 Norte 37 Norte 0 -- -- 80
2019-05-24 23:00:00 9.7 20 Nordeste 30 Norte 0 -- -- 81
2019-05-24 22:00:00 9.7 21 Nordeste 37 Nordeste 0 -- -- 81
2019-05-24 21:00:00 10.7 17 Nordeste 33 Nordeste 0 -- -- 79
2019-05-24 20:00:00 11.7 21 Nordeste 38 Nordeste 0 -- -- 75
2019-05-24 19:00:00 12.7 18 Nordeste 33 Nordeste 0 -- -- 76
2019-05-24 18:00:00 12.5 16 Norte 28 Nordeste 0 -- -- 74
2019-05-24 17:00:00 12.9 19 Nordeste 31 Nordeste 0 -- -- 73
2019-05-24 16:00:00 12.6 17 Nordeste 28 Nordeste 0 -- -- 75
2019-05-24 15:00:00 12.9 18 Nordeste 29 Nordeste 0 -- -- 82
2019-05-24 14:00:00 10.3 13 Nordeste 27 Nordeste 0 -- -- 87
2019-05-24 13:00:00 9.9 24 Nordeste 33 Nordeste 0 -- -- 89
2019-05-24 12:00:00 9.2 10 Nordeste 22 Norte 1.2 -- -- 93
2019-05-24 11:00:00 9.2 9 Nordeste 28 Norte 1 -- -- 94
2019-05-24 10:00:00 9 12 Nordeste 40 Nordeste 1.6 -- -- 95
2019-05-24 09:00:00 9.2 19 Nordeste -- -- -- -- -- 92
2019-05-24 08:00:00 -- -- -- -- -- -- -- -- --
2019-05-24 07:00:00 -- -- -- -- -- -- -- -- --
2019-05-24 06:00:00 -- -- -- -- -- -- -- -- --
2019-05-24 05:00:00 -- -- -- -- -- -- -- -- --
2019-05-24 04:00:00 -- -- -- -- -- -- -- -- --
2019-05-24 03:00:00 -- -- -- -- -- -- -- -- --
2019-05-24 02:00:00 -- -- -- -- -- -- -- -- --
2019-05-24 01:00:00 -- -- -- -- -- -- -- -- --
2019-05-24 00:00:00 -- -- -- -- -- -- -- -- --
2019-05-23 23:00:00 -- -- -- -- -- -- -- -- --
2019-05-23 22:00:00 -- -- -- -- -- -- -- -- --
2019-05-23 21:00:00 -- -- -- -- -- -- -- -- --
2019-05-23 20:00:00 19.4 12 Nordeste 25 Este 0 -- -- 54
2019-05-23 19:00:00 23 13 Oeste 28 Noroeste 0 -- -- 37
2019-05-23 18:00:00 24.6 14 Oeste 31 Oeste 0 -- -- 30
2019-05-23 17:00:00 23.7 16 Oeste 27 Oeste 0 -- -- 35
2019-05-23 16:00:00 22.5 15 Oeste 27 Oeste 0 -- -- 36
2019-05-23 15:00:00 21.4 3 Este 15 Nordeste 0 -- -- 43
2019-05-23 14:00:00 22.8 9 Nordeste 17 Nordeste 0 -- -- 41
2019-05-23 13:00:00 21.9 3 Nordeste 10 Este 0 -- -- 45
2019-05-23 12:00:00 20.3 4 Noroeste 8 Nordeste 0 -- -- 50
2019-05-23 11:00:00 17.3 3 Sur 9 Sudoeste 0 -- -- 66
2019-05-23 10:00:00 14 0 Calma 5 Oeste 0 -- -- 82
2019-05-23 09:00:00 11.3 3 Sudoeste 5 Sudoeste 0 -- -- 91
2019-05-23 08:00:00 9.6 2 Oeste 9 Oeste 0 -- -- 94
2019-05-23 07:00:00 7.7 5 Sudoeste 6 Sudoeste 0 -- -- 94
2019-05-23 06:00:00 7.6 2 Norte 12 Sudoeste 0 -- -- 93
2019-05-23 05:00:00 6.9 4 Sudoeste 6 Oeste 0 -- -- 91
2019-05-23 04:00:00 7.3 4 Sudoeste 8 Sudoeste 0 -- -- 87
2019-05-23 03:00:00 8.3 0 Calma 11 Sur 0 -- -- 81
2019-05-23 02:00:00 9.3 5 Sur 10 Sudeste 0 -- -- 77
2019-05-23 01:00:00 9.7 5 Sur 8 Este 0 -- -- 76
2019-05-23 00:00:00 11.3 5 Este 11 Sudeste 0 -- -- 72
2019-05-22 23:00:00 12.4 6 Sudeste 16 Este 0 -- -- 72
2019-05-22 22:00:00 13.8 8 Sudeste 20 Este 0 -- -- 69
2019-05-22 21:00:00 17.8 9 Este 17 Este 0 -- -- 56
2019-05-22 20:00:00 21.2 11 Este 17 Este 0 -- -- 44
2019-05-22 19:00:00 22.6 8 Norte 21 Nordeste 0 -- -- 35
2019-05-22 18:00:00 21.4 10 Nordeste 21 Nordeste 0 -- -- 37
2019-05-22 17:00:00 22.4 10 Nordeste 24 Nordeste 0 -- -- 37
2019-05-22 16:00:00 22.1 9 Este 22 Norte 0 -- -- 38
2019-05-22 15:00:00 21.4 14 Norte 25 Nordeste 0 -- -- 37
2019-05-22 14:00:00 20.6 14 Nordeste 24 Nordeste 0 -- -- 42
2019-05-22 13:00:00 19.6 8 Nordeste 19 Norte 0 -- -- 45
2019-05-22 12:00:00 18.1 3 Noroeste 10 Noroeste 0 -- -- 50
2019-05-22 11:00:00 16 5 Sur 9 Sur 0 -- -- 58
2019-05-22 10:00:00 13.2 3 Sudeste 8 Sudeste 0 -- -- 75
2019-05-22 09:00:00 9.9 2 Nordeste 4 Nordeste 0 -- -- 83
2019-05-22 08:00:00 5.7 4 Oeste 8 Oeste 0 -- -- 95
2019-05-22 07:00:00 3.1 5 Oeste 10 Sudoeste 0 -- -- 94
2019-05-22 06:00:00 3.2 2 Sur 6 Sudoeste 0 -- -- 92
2019-05-22 05:00:00 3.8 0 Calma 10 Sudoeste 0 -- -- 92
2019-05-22 04:00:00 4.3 6 Sudoeste 9 Sudoeste 0 -- -- 91
2019-05-22 03:00:00 5.5 3 Oeste 12 Sudoeste 0 -- -- 90
2019-05-22 02:00:00 6.6 2 Noroeste 6 Sudeste 0 -- -- 86
2019-05-22 01:00:00 6.8 4 Sur 9 Sur 0 -- -- 86
2019-05-22 00:00:00 8.5 6 Sudeste 13 Sudeste 0 -- -- 82
2019-05-21 23:00:00 10.4 6 Este 21 Sudeste 0 -- -- 76
2019-05-21 22:00:00 12.1 9 Sur 13 Sur 0 -- -- 66
2019-05-21 21:00:00 14.2 12 Nordeste 18 Nordeste 0 -- -- 51
2019-05-21 20:00:00 17.6 15 Nordeste 24 Nordeste 0 -- -- 41
2019-05-21 19:00:00 18.6 14 Nordeste 24 Nordeste 0 -- -- 43
2019-05-21 18:00:00 19 8 Nordeste 21 Nordeste 0 -- -- 40
2019-05-21 17:00:00 19 11 Nordeste 26 Nordeste 0 -- -- 41
2019-05-21 16:00:00 18.6 12 Nordeste 25 Nordeste 0 -- -- 40
2019-05-21 15:00:00 17.9 9 Este 21 Nordeste 0 -- -- 42
2019-05-21 14:00:00 17.8 10 Nordeste 20 Este 0 -- -- 41
2019-05-21 13:00:00 16.7 12 Nordeste 21 Este 0 -- -- 47
2019-05-21 12:00:00 15.9 11 Nordeste 19 Nordeste 0 -- -- 49
2019-05-21 11:00:00 15 5 Sudeste 16 Este 0 -- -- 50
2019-05-21 10:00:00 11.5 3 Este 10 Este 0 -- -- 69
2019-05-21 09:00:00 9 0 Calma 3 Sudeste 0 -- -- 80
2019-05-21 08:00:00 5.5 0 Calma 8 Sudoeste 0 -- -- 97
2019-05-21 07:00:00 1.9 5 Sudoeste 8 Sudoeste 0 -- -- 93
2019-05-21 06:00:00 2.1 6 Sudoeste 10 Sudoeste 0 -- -- 93
2019-05-21 05:00:00 2.7 2 Oeste 5 Sur 0 -- -- 89
2019-05-21 04:00:00 4.3 2 Sudeste 9 Sudeste 0 -- -- 87
2019-05-21 03:00:00 5.5 5 Sudeste 13 Este 0 -- -- 82
2019-05-21 02:00:00 6.6 5 Sudeste 15 Este 0 -- -- 80
2019-05-21 01:00:00 6.8 8 Sudeste 17 Sudeste 0 -- -- 81
2019-05-21 00:00:00 7.5 6 Sur 20 Este 0 -- -- 80